createdAt,value
2018-07-15T00:00:00.669Z,14.7
2018-07-15T00:05:00.667Z,14.9
2018-07-15T00:10:00.669Z,14.4
2018-07-15T00:15:00.671Z,14.8
2018-07-15T00:20:00.682Z,15.0
2018-07-15T00:30:00.650Z,15.2
2018-07-15T00:40:00.649Z,15.6
2018-07-15T00:45:00.623Z,16.1
2018-07-15T00:50:00.657Z,15.6
2018-07-15T00:55:00.662Z,15.1
2018-07-15T01:00:00.653Z,14.8
2018-07-15T01:05:00.655Z,14.3
2018-07-15T01:10:00.662Z,13.7
2018-07-15T01:15:00.666Z,14.5
2018-07-15T01:20:00.690Z,15.3
2018-07-15T01:25:00.673Z,15.6
2018-07-15T01:30:00.668Z,16.8
2018-07-15T01:35:00.641Z,17.2
2018-07-15T01:40:00.671Z,17.7
2018-07-15T01:45:00.671Z,17.2
2018-07-15T01:50:00.674Z,17.5
2018-07-15T01:55:00.677Z,17.4
2018-07-15T02:00:00.679Z,17.8
2018-07-15T02:05:00.698Z,17.5
2018-07-15T02:10:00.689Z,17.2
2018-07-15T02:15:00.687Z,17.3
2018-07-15T02:25:00.689Z,16.9
2018-07-15T02:30:00.717Z,18.8
2018-07-15T02:35:00.694Z,19.8
2018-07-15T02:40:00.692Z,19.7
2018-07-15T02:45:00.691Z,20.1
2018-07-15T02:50:00.692Z,19.8
2018-07-15T02:55:00.695Z,17.8
2018-07-15T03:00:00.690Z,17.8
2018-07-15T03:05:00.699Z,17.4
2018-07-15T03:10:00.698Z,18.4
2018-07-15T03:15:00.702Z,19.3
2018-07-15T03:20:00.705Z,20.0
2018-07-15T03:30:00.706Z,20.8
2018-07-15T03:35:00.733Z,20.1
2018-07-15T03:45:00.702Z,19.6
2018-07-15T03:50:00.704Z,21.0
2018-07-15T03:55:00.705Z,19.9
2018-07-15T04:00:00.710Z,19.4
2018-07-15T04:05:00.709Z,19.0
2018-07-15T04:10:00.739Z,19.1
2018-07-15T04:15:00.711Z,17.7
2018-07-15T04:20:00.717Z,18.1
2018-07-15T04:25:00.712Z,18.5
2018-07-15T04:30:00.719Z,18.8
2018-07-15T04:35:00.720Z,20.2
2018-07-15T04:40:00.719Z,20.5
2018-07-15T04:45:00.719Z,21.4
2018-07-15T04:50:00.720Z,21.1
2018-07-15T04:55:00.720Z,21.2
2018-07-15T05:00:00.724Z,20.3
2018-07-15T05:05:00.728Z,19.8
2018-07-15T05:10:00.724Z,20.0
2018-07-15T05:15:00.735Z,20.6
2018-07-15T05:20:00.736Z,21.0
2018-07-15T05:25:00.805Z,20.3
2018-07-15T05:30:00.735Z,21.4
2018-07-15T05:35:00.811Z,20.7
2018-07-15T05:40:00.734Z,20.5
2018-07-15T05:45:00.746Z,19.6
2018-07-15T05:50:00.742Z,20.0
2018-07-15T05:55:00.774Z,19.6
2018-07-15T06:00:00.793Z,19.4
2018-07-15T06:05:00.786Z,18.6
2018-07-15T06:15:00.753Z,18.1
2018-07-15T06:20:00.755Z,16.3
2018-07-15T06:25:00.755Z,14.8
2018-07-15T06:30:00.763Z,13.0
2018-07-15T06:35:00.760Z,11.6
2018-07-15T06:40:00.765Z,9.6
2018-07-15T06:45:00.765Z,8.7
2018-07-15T06:50:00.766Z,7.4
2018-07-15T06:55:00.791Z,6.6
2018-07-15T07:00:00.765Z,6.0
2018-07-15T07:05:00.759Z,5.8
2018-07-15T07:10:00.765Z,5.4
2018-07-15T07:15:00.768Z,5.8
2018-07-15T07:20:00.770Z,6.2
2018-07-15T07:25:00.772Z,5.8
2018-07-15T07:30:00.774Z,5.8
2018-07-15T07:35:00.767Z,6.0
2018-07-15T07:45:00.812Z,5.6
2018-07-15T07:50:00.814Z,6.1
2018-07-15T07:55:00.819Z,6.4
2018-07-15T08:00:00.825Z,6.6
2018-07-15T08:05:00.818Z,6.5
2018-07-15T08:10:00.840Z,6.7
2018-07-15T08:15:00.822Z,6.8
2018-07-15T08:20:00.832Z,6.9
2018-07-15T08:30:00.788Z,7.5
2018-07-15T08:50:00.287Z,8.4
2018-07-15T09:00:00.282Z,8.7
2018-07-15T09:05:00.273Z,8.8
2018-07-15T09:10:00.283Z,8.6
2018-07-15T09:15:00.290Z,8.7
2018-07-15T09:25:00.288Z,8.6
2018-07-15T09:30:00.297Z,8.8
2018-07-15T09:35:00.291Z,9.4
2018-07-15T09:40:00.303Z,9.8
2018-07-15T09:45:00.286Z,10.2
2018-07-15T09:50:00.288Z,10.3
2018-07-15T10:00:00.360Z,10.0
2018-07-15T10:05:00.330Z,10.2
2018-07-15T10:10:00.300Z,10.4
2018-07-15T10:15:00.337Z,10.7
2018-07-15T10:20:00.337Z,10.6
2018-07-15T10:25:00.344Z,10.7
2018-07-15T10:30:00.342Z,11.2
2018-07-15T10:40:00.313Z,11.3
2018-07-15T10:45:00.315Z,12.0
2018-07-15T10:55:00.325Z,11.0
2018-07-15T11:00:00.351Z,11.0
2018-07-15T11:10:00.328Z,10.5
2018-07-15T11:15:00.331Z,10.5
2018-07-15T11:20:00.331Z,10.9
2018-07-15T11:25:00.357Z,11.1
2018-07-15T11:30:00.336Z,10.8
2018-07-15T11:35:00.364Z,11.5
2018-07-15T11:40:00.340Z,11.3
2018-07-15T11:45:00.360Z,11.6
2018-07-15T11:50:00.375Z,11.0
2018-07-15T12:00:00.363Z,10.2
2018-07-15T12:10:00.340Z,9.2
2018-07-15T12:15:00.345Z,9.1
2018-07-15T12:20:00.347Z,8.9
2018-07-15T12:30:00.345Z,8.5
2018-07-15T12:35:00.358Z,8.8
2018-07-15T12:40:00.359Z,9.2
2018-07-15T12:45:00.355Z,8.9
2018-07-15T12:50:00.356Z,8.6
2018-07-15T13:00:00.359Z,8.4
2018-07-15T13:05:00.359Z,8.2
2018-07-15T13:10:00.361Z,8.1
2018-07-15T13:15:00.363Z,8.2
2018-07-15T13:20:00.367Z,8.0
2018-07-15T13:25:00.369Z,7.9
2018-07-15T13:30:00.369Z,7.8
2018-07-15T13:35:00.368Z,7.7
2018-07-15T13:40:00.369Z,7.5
2018-07-15T13:45:00.383Z,7.5
2018-07-15T13:55:00.386Z,7.6
2018-07-15T14:00:00.382Z,7.6
2018-07-15T14:05:00.384Z,7.4
2018-07-15T14:10:00.389Z,7.3
2018-07-15T14:15:00.390Z,7.2
2018-07-15T14:20:00.399Z,6.5
2018-07-15T14:25:00.387Z,6.3
2018-07-15T14:30:00.394Z,6.3
2018-07-15T14:35:00.401Z,6.1
2018-07-15T14:40:01.427Z,5.8
2018-07-15T14:45:00.398Z,5.8
2018-07-15T14:50:00.397Z,5.9
2018-07-15T14:55:00.401Z,5.5
2018-07-15T15:00:00.398Z,5.3
2018-07-15T15:05:00.401Z,5.2
2018-07-15T15:15:00.412Z,5.0
2018-07-15T15:25:00.410Z,4.8
2018-07-15T15:30:00.416Z,5.2
2018-07-15T15:40:00.422Z,5.3
2018-07-15T15:45:00.456Z,5.6
2018-07-15T15:55:00.424Z,5.2
2018-07-15T16:00:00.426Z,5.2
2018-07-15T16:05:00.427Z,4.9
2018-07-15T16:10:00.467Z,4.6
2018-07-15T16:15:00.430Z,4.5
2018-07-15T16:20:00.432Z,4.4
2018-07-15T16:30:00.431Z,4.3
2018-07-15T16:35:00.429Z,4.4
2018-07-15T16:45:00.440Z,4.9
2018-07-15T16:50:00.440Z,4.7
2018-07-15T17:00:05.443Z,4.5
2018-07-15T17:05:00.449Z,4.7
2018-07-15T17:10:00.443Z,4.2
2018-07-15T17:15:00.445Z,4.2
2018-07-15T17:20:00.441Z,4.1
2018-07-15T17:30:00.446Z,3.8
2018-07-15T17:35:00.452Z,4.0
2018-07-15T17:45:00.447Z,4.8
2018-07-15T17:50:00.451Z,5.2
2018-07-15T17:55:00.456Z,5.3
2018-07-15T18:00:00.457Z,6.0
2018-07-15T18:05:00.532Z,6.3
2018-07-15T18:10:00.458Z,5.7
2018-07-15T18:15:00.492Z,5.8
2018-07-15T18:20:00.461Z,6.0
2018-07-15T18:25:00.491Z,5.5
2018-07-15T18:30:00.485Z,5.5
2018-07-15T18:35:00.465Z,5.7
2018-07-15T18:40:00.471Z,5.4
2018-07-15T18:45:00.564Z,5.4
2018-07-15T18:55:00.571Z,5.7
2018-07-15T19:00:00.479Z,5.4
2018-07-15T19:05:00.482Z,5.6
2018-07-15T19:10:00.481Z,5.4
2018-07-15T19:15:00.477Z,5.2
2018-07-15T19:20:00.484Z,5.0
2018-07-15T19:25:00.484Z,5.3
2018-07-15T19:30:00.486Z,5.3
2018-07-15T19:35:00.486Z,5.7
2018-07-15T19:40:00.514Z,6.0
2018-07-15T19:45:00.521Z,6.1
2018-07-15T19:50:00.523Z,5.6
2018-07-15T20:00:00.487Z,5.0
2018-07-15T20:05:00.493Z,5.4
2018-07-15T20:10:00.495Z,5.1
2018-07-15T20:15:00.497Z,5.5
2018-07-15T20:20:00.497Z,5.4
2018-07-15T20:25:00.499Z,5.6
2018-07-15T20:30:00.505Z,5.1
2018-07-15T20:35:00.503Z,5.3
2018-07-15T20:40:00.514Z,5.7
2018-07-15T20:45:00.506Z,6.1
2018-07-15T20:50:00.549Z,6.3
2018-07-15T20:55:00.567Z,6.5
2018-07-15T21:00:00.540Z,6.2
2018-07-15T21:05:00.519Z,5.9
2018-07-15T21:10:00.508Z,5.6
2018-07-15T21:15:00.515Z,5.7
2018-07-15T21:20:00.518Z,5.8
2018-07-15T21:30:00.527Z,6.1
2018-07-15T21:40:00.519Z,5.8
2018-07-15T21:45:00.531Z,5.7
2018-07-15T21:50:00.551Z,6.4
2018-07-15T21:55:00.524Z,6.0
2018-07-15T22:00:00.542Z,6.0
2018-07-15T22:05:00.533Z,6.2
2018-07-15T22:10:00.534Z,6.7
2018-07-15T22:30:00.570Z,7.0
2018-07-15T22:40:00.561Z,7.4
2018-07-15T22:45:00.562Z,7.4
2018-07-15T22:50:00.566Z,7.2
2018-07-15T22:55:00.569Z,7.4
2018-07-15T23:00:00.574Z,7.4
2018-07-15T23:05:00.573Z,7.3
2018-07-15T23:20:01.169Z,5.8
2018-07-15T23:26:06.113Z,6.2
2018-07-15T23:31:01.216Z,6.7
2018-07-15T23:36:06.119Z,6.6
2018-07-15T23:41:06.118Z,6.4
2018-07-15T23:46:01.136Z,7.1
2018-07-15T23:51:01.197Z,7.2
2018-07-15T23:56:01.139Z,7.0
